sensor_id;sensor_type;location;lat;lon;timestamp;P1;durP1;ratioP1;P2;durP2;ratioP2
17832;SDS011;9041;49.718;21.798;2023-03-14T00:02:20;9.07;;;4.93;;
17832;SDS011;9041;49.718;21.798;2023-03-14T00:04:47;9.30;;;4.77;;
17832;SDS011;9041;49.718;21.798;2023-03-14T00:07:15;9.53;;;4.80;;
17832;SDS011;9041;49.718;21.798;2023-03-14T00:09:42;9.37;;;4.93;;
17832;SDS011;9041;49.718;21.798;2023-03-14T00:12:09;12.17;;;5.13;;
17832;SDS011;9041;49.718;21.798;2023-03-14T00:14:36;8.97;;;4.57;;
17832;SDS011;9041;49.718;21.798;2023-03-14T00:17:03;9.17;;;4.53;;
17832;SDS011;9041;49.718;21.798;2023-03-14T00:19:31;9.03;;;5.03;;
17832;SDS011;9041;49.718;21.798;2023-03-14T00:21:58;10.37;;;4.70;;
17832;SDS011;9041;49.718;21.798;2023-03-14T00:24:26;8.67;;;4.60;;
17832;SDS011;9041;49.718;21.798;2023-03-14T00:26:54;9.50;;;4.97;;
17832;SDS011;9041;49.718;21.798;2023-03-14T00:29:20;10.90;;;4.50;;
17832;SDS011;9041;49.718;21.798;2023-03-14T00:31:47;7.63;;;4.50;;
17832;SDS011;9041;49.718;21.798;2023-03-14T00:34:14;8.63;;;4.40;;
17832;SDS011;9041;49.718;21.798;2023-03-14T00:36:41;10.47;;;4.63;;
17832;SDS011;9041;49.718;21.798;2023-03-14T00:39:08;9.67;;;4.13;;
17832;SDS011;9041;49.718;21.798;2023-03-14T00:41:36;9.07;;;4.57;;
17832;SDS011;9041;49.718;21.798;2023-03-14T00:44:03;11.20;;;4.47;;
17832;SDS011;9041;49.718;21.798;2023-03-14T00:46:30;8.97;;;4.30;;
17832;SDS011;9041;49.718;21.798;2023-03-14T00:48:57;8.90;;;4.47;;
17832;SDS011;9041;49.718;21.798;2023-03-14T00:51:24;7.73;;;4.27;;
17832;SDS011;9041;49.718;21.798;2023-03-14T00:53:51;8.33;;;3.80;;
17832;SDS011;9041;49.718;21.798;2023-03-14T00:56:17;10.53;;;4.70;;
17832;SDS011;9041;49.718;21.798;2023-03-14T00:58:46;9.53;;;4.47;;
17832;SDS011;9041;49.718;21.798;2023-03-14T01:01:13;9.70;;;4.50;;
17832;SDS011;9041;49.718;21.798;2023-03-14T01:03:41;6.73;;;3.80;;
17832;SDS011;9041;49.718;21.798;2023-03-14T01:06:09;5.20;;;3.50;;
17832;SDS011;9041;49.718;21.798;2023-03-14T01:08:37;8.57;;;3.63;;
17832;SDS011;9041;49.718;21.798;2023-03-14T01:11:05;7.07;;;4.17;;
17832;SDS011;9041;49.718;21.798;2023-03-14T01:13:33;9.10;;;4.13;;
17832;SDS011;9041;49.718;21.798;2023-03-14T01:16:02;8.33;;;4.17;;
17832;SDS011;9041;49.718;21.798;2023-03-14T01:18:31;5.27;;;3.23;;
17832;SDS011;9041;49.718;21.798;2023-03-14T01:20:58;8.63;;;3.90;;
17832;SDS011;9041;49.718;21.798;2023-03-14T01:23:25;9.43;;;4.13;;
17832;SDS011;9041;49.718;21.798;2023-03-14T01:25:52;6.53;;;4.00;;
17832;SDS011;9041;49.718;21.798;2023-03-14T01:28:18;8.00;;;3.77;;
17832;SDS011;9041;49.718;21.798;2023-03-14T01:30:45;6.40;;;3.53;;
17832;SDS011;9041;49.718;21.798;2023-03-14T01:33:14;8.03;;;3.57;;
17832;SDS011;9041;49.718;21.798;2023-03-14T01:35:41;7.20;;;3.77;;
17832;SDS011;9041;49.718;21.798;2023-03-14T01:38:07;7.27;;;4.30;;
17832;SDS011;9041;49.718;21.798;2023-03-14T01:40:40;8.77;;;3.87;;
17832;SDS011;9041;49.718;21.798;2023-03-14T01:43:13;7.20;;;3.77;;
17832;SDS011;9041;49.718;21.798;2023-03-14T01:48:52;5.17;;;3.60;;
17832;SDS011;9041;49.718;21.798;2023-03-14T01:51:24;8.77;;;4.27;;
17832;SDS011;9041;49.718;21.798;2023-03-14T01:53:54;5.83;;;3.67;;
17832;SDS011;9041;49.718;21.798;2023-03-14T01:56:26;9.13;;;4.30;;
17832;SDS011;9041;49.718;21.798;2023-03-14T01:58:52;6.93;;;4.13;;
17832;SDS011;9041;49.718;21.798;2023-03-14T02:01:20;8.90;;;3.93;;
17832;SDS011;9041;49.718;21.798;2023-03-14T02:03:49;8.97;;;4.43;;
17832;SDS011;9041;49.718;21.798;2023-03-14T02:06:19;7.60;;;3.97;;
17832;SDS011;9041;49.718;21.798;2023-03-14T02:08:49;7.03;;;3.93;;
17832;SDS011;9041;49.718;21.798;2023-03-14T02:11:17;9.13;;;3.57;;
17832;SDS011;9041;49.718;21.798;2023-03-14T02:13:44;6.33;;;3.60;;
17832;SDS011;9041;49.718;21.798;2023-03-14T02:16:11;7.63;;;3.80;;
17832;SDS011;9041;49.718;21.798;2023-03-14T02:18:38;6.40;;;3.90;;
17832;SDS011;9041;49.718;21.798;2023-03-14T02:21:11;7.30;;;4.07;;
17832;SDS011;9041;49.718;21.798;2023-03-14T02:23:41;7.03;;;3.77;;
17832;SDS011;9041;49.718;21.798;2023-03-14T02:26:14;8.63;;;4.00;;
17832;SDS011;9041;49.718;21.798;2023-03-14T02:28:44;5.90;;;3.70;;
17832;SDS011;9041;49.718;21.798;2023-03-14T02:31:11;6.87;;;3.90;;
17832;SDS011;9041;49.718;21.798;2023-03-14T02:33:38;7.03;;;3.83;;
17832;SDS011;9041;49.718;21.798;2023-03-14T02:36:05;7.13;;;3.87;;
17832;SDS011;9041;49.718;21.798;2023-03-14T02:38:35;6.93;;;3.87;;
17832;SDS011;9041;49.718;21.798;2023-03-14T02:41:06;7.03;;;3.67;;
17832;SDS011;9041;49.718;21.798;2023-03-14T02:43:32;6.50;;;3.47;;
17832;SDS011;9041;49.718;21.798;2023-03-14T02:46:01;7.80;;;3.43;;
17832;SDS011;9041;49.718;21.798;2023-03-14T02:48:30;4.77;;;3.20;;
17832;SDS011;9041;49.718;21.798;2023-03-14T02:51:00;8.83;;;3.90;;
17832;SDS011;9041;49.718;21.798;2023-03-14T02:53:28;7.60;;;3.40;;
17832;SDS011;9041;49.718;21.798;2023-03-14T02:55:56;4.77;;;3.13;;
17832;SDS011;9041;49.718;21.798;2023-03-14T02:58:23;5.27;;;3.47;;
17832;SDS011;9041;49.718;21.798;2023-03-14T03:00:53;7.60;;;3.40;;
17832;SDS011;9041;49.718;21.798;2023-03-14T03:03:21;5.53;;;3.13;;
17832;SDS011;9041;49.718;21.798;2023-03-14T03:05:48;7.13;;;3.10;;
17832;SDS011;9041;49.718;21.798;2023-03-14T03:08:16;5.90;;;3.43;;
17832;SDS011;9041;49.718;21.798;2023-03-14T03:10:43;7.97;;;3.83;;
17832;SDS011;9041;49.718;21.798;2023-03-14T03:13:10;6.00;;;3.00;;
17832;SDS011;9041;49.718;21.798;2023-03-14T03:15:37;6.20;;;3.40;;
17832;SDS011;9041;49.718;21.798;2023-03-14T03:18:05;9.20;;;3.40;;
17832;SDS011;9041;49.718;21.798;2023-03-14T03:20:36;5.47;;;2.90;;
17832;SDS011;9041;49.718;21.798;2023-03-14T03:23:03;7.03;;;3.33;;
17832;SDS011;9041;49.718;21.798;2023-03-14T03:25:30;6.93;;;3.70;;
17832;SDS011;9041;49.718;21.798;2023-03-14T03:27:57;8.83;;;3.70;;
17832;SDS011;9041;49.718;21.798;2023-03-14T03:30:44;7.00;;;3.80;;
17832;SDS011;9041;49.718;21.798;2023-03-14T03:33:12;7.40;;;3.97;;
17832;SDS011;9041;49.718;21.798;2023-03-14T03:35:44;5.23;;;3.33;;
17832;SDS011;9041;49.718;21.798;2023-03-14T03:38:11;6.93;;;3.33;;
17832;SDS011;9041;49.718;21.798;2023-03-14T03:40:38;7.27;;;3.50;;
17832;SDS011;9041;49.718;21.798;2023-03-14T03:43:05;5.73;;;3.33;;
17832;SDS011;9041;49.718;21.798;2023-03-14T03:45:31;6.23;;;3.47;;
17832;SDS011;9041;49.718;21.798;2023-03-14T03:47:58;6.83;;;3.30;;
17832;SDS011;9041;49.718;21.798;2023-03-14T03:50:25;5.30;;;2.60;;
17832;SDS011;9041;49.718;21.798;2023-03-14T03:52:53;4.93;;;3.00;;
17832;SDS011;9041;49.718;21.798;2023-03-14T03:55:20;8.43;;;3.30;;
17832;SDS011;9041;49.718;21.798;2023-03-14T03:57:47;6.90;;;3.50;;
17832;SDS011;9041;49.718;21.798;2023-03-14T04:00:14;8.53;;;3.17;;
17832;SDS011;9041;49.718;21.798;2023-03-14T04:02:41;6.90;;;3.20;;
17832;SDS011;9041;49.718;21.798;2023-03-14T04:05:08;6.80;;;3.40;;
17832;SDS011;9041;49.718;21.798;2023-03-14T04:07:35;7.57;;;3.30;;
17832;SDS011;9041;49.718;21.798;2023-03-14T04:10:04;6.07;;;3.57;;
17832;SDS011;9041;49.718;21.798;2023-03-14T04:12:31;6.53;;;3.30;;
17832;SDS011;9041;49.718;21.798;2023-03-14T04:14:58;7.60;;;3.50;;
17832;SDS011;9041;49.718;21.798;2023-03-14T04:17:25;6.83;;;3.83;;
17832;SDS011;9041;49.718;21.798;2023-03-14T04:19:51;6.20;;;2.90;;
17832;SDS011;9041;49.718;21.798;2023-03-14T04:22:19;4.53;;;3.03;;
17832;SDS011;9041;49.718;21.798;2023-03-14T04:24:45;7.87;;;3.67;;
17832;SDS011;9041;49.718;21.798;2023-03-14T04:27:16;5.93;;;3.13;;
17832;SDS011;9041;49.718;21.798;2023-03-14T04:29:43;6.33;;;3.40;;
17832;SDS011;9041;49.718;21.798;2023-03-14T04:32:10;10.27;;;3.50;;
17832;SDS011;9041;49.718;21.798;2023-03-14T04:34:36;7.30;;;3.40;;
17832;SDS011;9041;49.718;21.798;2023-03-14T04:37:03;5.30;;;3.17;;
17832;SDS011;9041;49.718;21.798;2023-03-14T04:39:30;6.30;;;3.43;;
17832;SDS011;9041;49.718;21.798;2023-03-14T04:41:57;6.67;;;3.03;;
17832;SDS011;9041;49.718;21.798;2023-03-14T04:44:25;6.03;;;2.40;;
17832;SDS011;9041;49.718;21.798;2023-03-14T04:46:52;5.33;;;3.20;;
17832;SDS011;9041;49.718;21.798;2023-03-14T04:49:19;10.63;;;3.60;;
17832;SDS011;9041;49.718;21.798;2023-03-14T04:51:46;5.37;;;3.20;;
17832;SDS011;9041;49.718;21.798;2023-03-14T04:54:13;5.13;;;3.07;;
17832;SDS011;9041;49.718;21.798;2023-03-14T04:56:40;9.43;;;3.80;;
17832;SDS011;9041;49.718;21.798;2023-03-14T04:59:07;6.50;;;3.23;;
17832;SDS011;9041;49.718;21.798;2023-03-14T05:01:35;7.27;;;3.57;;
17832;SDS011;9041;49.718;21.798;2023-03-14T05:04:02;7.23;;;3.47;;
17832;SDS011;9041;49.718;21.798;2023-03-14T05:06:29;6.20;;;3.10;;
17832;SDS011;9041;49.718;21.798;2023-03-14T05:08:56;8.70;;;3.37;;
17832;SDS011;9041;49.718;21.798;2023-03-14T05:11:22;8.37;;;3.93;;
17832;SDS011;9041;49.718;21.798;2023-03-14T05:13:49;9.07;;;3.53;;
17832;SDS011;9041;49.718;21.798;2023-03-14T05:16:19;6.33;;;3.40;;
17832;SDS011;9041;49.718;21.798;2023-03-14T05:18:47;7.87;;;3.63;;
17832;SDS011;9041;49.718;21.798;2023-03-14T05:21:15;7.33;;;3.20;;
17832;SDS011;9041;49.718;21.798;2023-03-14T05:23:43;10.00;;;3.50;;
17832;SDS011;9041;49.718;21.798;2023-03-14T05:26:09;6.53;;;3.63;;
17832;SDS011;9041;49.718;21.798;2023-03-14T05:28:36;3.97;;;3.00;;
17832;SDS011;9041;49.718;21.798;2023-03-14T05:31:06;6.10;;;3.00;;
17832;SDS011;9041;49.718;21.798;2023-03-14T05:33:33;8.80;;;3.00;;
17832;SDS011;9041;49.718;21.798;2023-03-14T05:36:01;6.83;;;3.20;;
17832;SDS011;9041;49.718;21.798;2023-03-14T05:38:28;6.73;;;3.70;;
17832;SDS011;9041;49.718;21.798;2023-03-14T05:40:55;7.13;;;3.83;;
17832;SDS011;9041;49.718;21.798;2023-03-14T05:43:21;6.00;;;3.33;;
17832;SDS011;9041;49.718;21.798;2023-03-14T05:45:48;7.87;;;4.27;;
17832;SDS011;9041;49.718;21.798;2023-03-14T05:48:15;13.40;;;5.80;;
17832;SDS011;9041;49.718;21.798;2023-03-14T05:50:43;7.73;;;3.83;;
17832;SDS011;9041;49.718;21.798;2023-03-14T05:53:11;10.87;;;3.37;;
17832;SDS011;9041;49.718;21.798;2023-03-14T05:55:38;8.87;;;3.50;;
17832;SDS011;9041;49.718;21.798;2023-03-14T05:58:05;7.23;;;3.40;;
17832;SDS011;9041;49.718;21.798;2023-03-14T06:00:32;6.83;;;3.67;;
17832;SDS011;9041;49.718;21.798;2023-03-14T06:02:59;6.00;;;3.10;;
17832;SDS011;9041;49.718;21.798;2023-03-14T06:05:26;5.30;;;2.80;;
17832;SDS011;9041;49.718;21.798;2023-03-14T06:07:53;8.77;;;3.20;;
17832;SDS011;9041;49.718;21.798;2023-03-14T06:10:22;7.20;;;3.30;;
17832;SDS011;9041;49.718;21.798;2023-03-14T06:12:48;4.63;;;2.87;;
17832;SDS011;9041;49.718;21.798;2023-03-14T06:15:16;5.82;;;3.05;;
17832;SDS011;9041;49.718;21.798;2023-03-14T06:17:43;4.38;;;3.00;;
17832;SDS011;9041;49.718;21.798;2023-03-14T06:20:10;7.15;;;3.88;;
17832;SDS011;9041;49.718;21.798;2023-03-14T06:22:38;7.70;;;3.50;;
17832;SDS011;9041;49.718;21.798;2023-03-14T06:25:05;6.93;;;3.60;;
17832;SDS011;9041;49.718;21.798;2023-03-14T06:27:34;6.78;;;3.22;;
17832;SDS011;9041;49.718;21.798;2023-03-14T06:30:01;9.35;;;4.15;;
17832;SDS011;9041;49.718;21.798;2023-03-14T06:32:28;6.03;;;3.50;;
17832;SDS011;9041;49.718;21.798;2023-03-14T06:34:54;11.63;;;4.85;;
17832;SDS011;9041;49.718;21.798;2023-03-14T06:37:22;9.52;;;4.50;;
17832;SDS011;9041;49.718;21.798;2023-03-14T06:39:49;6.47;;;3.22;;
17832;SDS011;9041;49.718;21.798;2023-03-14T06:42:16;11.75;;;4.35;;
17832;SDS011;9041;49.718;21.798;2023-03-14T06:44:46;4.18;;;2.65;;
17832;SDS011;9041;49.718;21.798;2023-03-14T06:47:12;9.13;;;4.20;;
17832;SDS011;9041;49.718;21.798;2023-03-14T06:49:39;6.75;;;3.63;;
17832;SDS011;9041;49.718;21.798;2023-03-14T06:52:06;7.15;;;4.18;;
17832;SDS011;9041;49.718;21.798;2023-03-14T06:54:33;8.25;;;4.15;;
17832;SDS011;9041;49.718;21.798;2023-03-14T06:57:00;11.07;;;4.57;;
17832;SDS011;9041;49.718;21.798;2023-03-14T06:59:26;6.70;;;3.47;;
17832;SDS011;9041;49.718;21.798;2023-03-14T07:01:55;7.30;;;3.60;;
17832;SDS011;9041;49.718;21.798;2023-03-14T07:04:22;12.32;;;5.35;;
17832;SDS011;9041;49.718;21.798;2023-03-14T07:06:48;9.98;;;4.05;;
17832;SDS011;9041;49.718;21.798;2023-03-14T07:09:15;8.63;;;3.92;;
17832;SDS011;9041;49.718;21.798;2023-03-14T07:11:43;6.63;;;4.05;;
17832;SDS011;9041;49.718;21.798;2023-03-14T07:14:11;8.07;;;3.63;;
17832;SDS011;9041;49.718;21.798;2023-03-14T07:16:38;7.90;;;2.75;;
17832;SDS011;9041;49.718;21.798;2023-03-14T07:19:07;9.13;;;4.70;;
17832;SDS011;9041;49.718;21.798;2023-03-14T07:21:33;7.68;;;4.40;;
17832;SDS011;9041;49.718;21.798;2023-03-14T07:24:00;6.00;;;3.33;;
17832;SDS011;9041;49.718;21.798;2023-03-14T07:26:27;8.38;;;3.90;;
17832;SDS011;9041;49.718;21.798;2023-03-14T07:28:54;10.55;;;3.40;;
17832;SDS011;9041;49.718;21.798;2023-03-14T07:31:21;6.50;;;3.30;;
17832;SDS011;9041;49.718;21.798;2023-03-14T07:33:48;10.38;;;3.65;;
17832;SDS011;9041;49.718;21.798;2023-03-14T07:36:21;4.60;;;2.95;;
17832;SDS011;9041;49.718;21.798;2023-03-14T07:38:48;8.23;;;3.72;;
17832;SDS011;9041;49.718;21.798;2023-03-14T07:41:15;6.80;;;2.90;;
17832;SDS011;9041;49.718;21.798;2023-03-14T07:43:42;7.18;;;3.63;;
17832;SDS011;9041;49.718;21.798;2023-03-14T07:46:09;5.50;;;3.03;;
17832;SDS011;9041;49.718;21.798;2023-03-14T07:48:35;8.15;;;4.10;;
17832;SDS011;9041;49.718;21.798;2023-03-14T07:51:02;8.77;;;3.55;;
17832;SDS011;9041;49.718;21.798;2023-03-14T07:53:31;6.22;;;3.45;;
17832;SDS011;9041;49.718;21.798;2023-03-14T07:55:57;6.55;;;2.80;;
17832;SDS011;9041;49.718;21.798;2023-03-14T07:58:24;7.03;;;3.50;;
17832;SDS011;9041;49.718;21.798;2023-03-14T08:00:51;6.35;;;3.30;;
17832;SDS011;9041;49.718;21.798;2023-03-14T08:03:18;6.50;;;3.13;;
17832;SDS011;9041;49.718;21.798;2023-03-14T08:05:46;7.97;;;3.83;;
17832;SDS011;9041;49.718;21.798;2023-03-14T08:08:14;8.90;;;3.15;;
17832;SDS011;9041;49.718;21.798;2023-03-14T08:10:42;8.00;;;3.78;;
17832;SDS011;9041;49.718;21.798;2023-03-14T08:13:09;6.03;;;3.05;;
17832;SDS011;9041;49.718;21.798;2023-03-14T08:15:36;7.88;;;3.25;;
17832;SDS011;9041;49.718;21.798;2023-03-14T08:18:03;9.32;;;3.05;;
17832;SDS011;9041;49.718;21.798;2023-03-14T08:20:31;6.43;;;3.00;;
17832;SDS011;9041;49.718;21.798;2023-03-14T08:22:58;11.27;;;3.38;;
17832;SDS011;9041;49.718;21.798;2023-03-14T08:25:26;7.43;;;2.85;;
17832;SDS011;9041;49.718;21.798;2023-03-14T08:27:55;5.93;;;3.30;;
17832;SDS011;9041;49.718;21.798;2023-03-14T08:30:22;9.15;;;3.25;;
17832;SDS011;9041;49.718;21.798;2023-03-14T08:32:49;5.18;;;2.80;;
17832;SDS011;9041;49.718;21.798;2023-03-14T08:35:16;10.38;;;3.17;;
17832;SDS011;9041;49.718;21.798;2023-03-14T08:37:43;5.72;;;2.70;;
17832;SDS011;9041;49.718;21.798;2023-03-14T08:40:10;8.25;;;2.97;;
17832;SDS011;9041;49.718;21.798;2023-03-14T08:42:37;5.15;;;2.90;;
17832;SDS011;9041;49.718;21.798;2023-03-14T08:45:07;7.72;;;2.80;;
17832;SDS011;9041;49.718;21.798;2023-03-14T08:47:34;5.55;;;2.80;;
17832;SDS011;9041;49.718;21.798;2023-03-14T08:50:01;5.60;;;3.25;;
17832;SDS011;9041;49.718;21.798;2023-03-14T08:52:29;6.35;;;3.20;;
17832;SDS011;9041;49.718;21.798;2023-03-14T08:54:56;9.45;;;3.53;;
17832;SDS011;9041;49.718;21.798;2023-03-14T08:57:23;6.53;;;3.38;;
17832;SDS011;9041;49.718;21.798;2023-03-14T08:59:52;9.52;;;2.58;;
17832;SDS011;9041;49.718;21.798;2023-03-14T09:02:22;6.00;;;2.70;;
17832;SDS011;9041;49.718;21.798;2023-03-14T09:04:49;9.20;;;3.40;;
17832;SDS011;9041;49.718;21.798;2023-03-14T09:07:16;8.15;;;3.20;;
17832;SDS011;9041;49.718;21.798;2023-03-14T09:09:43;5.63;;;2.63;;
17832;SDS011;9041;49.718;21.798;2023-03-14T09:12:11;5.68;;;2.67;;
17832;SDS011;9041;49.718;21.798;2023-03-14T09:14:38;5.72;;;2.53;;
17832;SDS011;9041;49.718;21.798;2023-03-14T09:17:05;3.28;;;2.67;;
17832;SDS011;9041;49.718;21.798;2023-03-14T09:19:34;7.28;;;2.75;;
17832;SDS011;9041;49.718;21.798;2023-03-14T09:22:01;4.78;;;3.08;;
17832;SDS011;9041;49.718;21.798;2023-03-14T09:24:28;5.80;;;3.22;;
17832;SDS011;9041;49.718;21.798;2023-03-14T09:26:56;8.13;;;3.38;;
17832;SDS011;9041;49.718;21.798;2023-03-14T09:29:23;14.48;;;4.65;;
17832;SDS011;9041;49.718;21.798;2023-03-14T09:31:50;8.98;;;3.90;;
17832;SDS011;9041;49.718;21.798;2023-03-14T09:34:17;7.65;;;2.83;;
17832;SDS011;9041;49.718;21.798;2023-03-14T09:36:45;7.57;;;3.40;;
17832;SDS011;9041;49.718;21.798;2023-03-14T09:39:18;6.25;;;2.90;;
17832;SDS011;9041;49.718;21.798;2023-03-14T09:41:46;9.32;;;3.63;;
17832;SDS011;9041;49.718;21.798;2023-03-14T09:44:15;6.30;;;2.83;;
17832;SDS011;9041;49.718;21.798;2023-03-14T09:46:44;7.72;;;2.85;;
17832;SDS011;9041;49.718;21.798;2023-03-14T09:49:14;10.18;;;3.20;;
17832;SDS011;9041;49.718;21.798;2023-03-14T09:52:04;9.00;;;2.50;;
17832;SDS011;9041;49.718;21.798;2023-03-14T09:54:35;5.65;;;2.78;;
17832;SDS011;9041;49.718;21.798;2023-03-14T09:57:03;7.93;;;3.25;;
17832;SDS011;9041;49.718;21.798;2023-03-14T09:59:31;6.38;;;3.42;;
17832;SDS011;9041;49.718;21.798;2023-03-14T10:02:01;8.30;;;3.08;;
17832;SDS011;9041;49.718;21.798;2023-03-14T10:04:28;5.63;;;3.05;;
17832;SDS011;9041;49.718;21.798;2023-03-14T10:06:57;8.27;;;3.58;;
17832;SDS011;9041;49.718;21.798;2023-03-14T10:09:25;5.68;;;3.05;;
17832;SDS011;9041;49.718;21.798;2023-03-14T10:11:54;5.22;;;3.15;;
17832;SDS011;9041;49.718;21.798;2023-03-14T10:14:29;9.75;;;3.38;;
17832;SDS011;9041;49.718;21.798;2023-03-14T10:16:59;10.57;;;3.75;;
17832;SDS011;9041;49.718;21.798;2023-03-14T10:19:31;6.68;;;2.97;;
17832;SDS011;9041;49.718;21.798;2023-03-14T10:22:00;8.38;;;3.15;;
17832;SDS011;9041;49.718;21.798;2023-03-14T10:24:30;9.43;;;3.70;;
17832;SDS011;9041;49.718;21.798;2023-03-14T10:26:58;7.47;;;3.20;;
17832;SDS011;9041;49.718;21.798;2023-03-14T10:29:27;6.53;;;3.10;;
17832;SDS011;9041;49.718;21.798;2023-03-14T10:31:56;5.28;;;3.30;;
17832;SDS011;9041;49.718;21.798;2023-03-14T10:34:27;7.53;;;3.13;;
17832;SDS011;9041;49.718;21.798;2023-03-14T10:36:57;7.88;;;3.63;;
17832;SDS011;9041;49.718;21.798;2023-03-14T10:39:35;4.88;;;3.05;;
17832;SDS011;9041;49.718;21.798;2023-03-14T10:42:10;6.13;;;3.30;;
17832;SDS011;9041;49.718;21.798;2023-03-14T10:44:40;6.40;;;3.17;;
17832;SDS011;9041;49.718;21.798;2023-03-14T10:47:12;7.05;;;3.42;;
17832;SDS011;9041;49.718;21.798;2023-03-14T10:49:43;7.30;;;3.13;;
17832;SDS011;9041;49.718;21.798;2023-03-14T10:52:14;7.75;;;3.58;;
17832;SDS011;9041;49.718;21.798;2023-03-14T10:54:48;6.15;;;2.85;;
17832;SDS011;9041;49.718;21.798;2023-03-14T10:57:19;12.15;;;3.30;;
17832;SDS011;9041;49.718;21.798;2023-03-14T10:59:46;8.52;;;3.13;;
17832;SDS011;9041;49.718;21.798;2023-03-14T11:02:18;4.15;;;2.97;;
17832;SDS011;9041;49.718;21.798;2023-03-14T11:04:55;4.60;;;2.72;;
17832;SDS011;9041;49.718;21.798;2023-03-14T11:07:29;8.10;;;3.17;;
17832;SDS011;9041;49.718;21.798;2023-03-14T11:10:03;8.13;;;3.15;;
17832;SDS011;9041;49.718;21.798;2023-03-14T11:12:39;5.53;;;3.00;;
17832;SDS011;9041;49.718;21.798;2023-03-14T11:15:13;9.50;;;2.80;;
17832;SDS011;9041;49.718;21.798;2023-03-14T11:17:46;7.57;;;3.53;;
17832;SDS011;9041;49.718;21.798;2023-03-14T11:20:27;8.10;;;2.88;;
17832;SDS011;9041;49.718;21.798;2023-03-14T11:22:59;8.93;;;2.72;;
17832;SDS011;9041;49.718;21.798;2023-03-14T11:25:32;7.53;;;3.03;;
17832;SDS011;9041;49.718;21.798;2023-03-14T11:28:04;7.38;;;3.75;;
17832;SDS011;9041;49.718;21.798;2023-03-14T11:30:37;7.55;;;3.20;;
17832;SDS011;9041;49.718;21.798;2023-03-14T11:33:08;6.15;;;2.75;;
17832;SDS011;9041;49.718;21.798;2023-03-14T11:35:41;7.85;;;3.17;;
17832;SDS011;9041;49.718;21.798;2023-03-14T11:38:18;7.25;;;3.08;;
17832;SDS011;9041;49.718;21.798;2023-03-14T11:40:52;4.30;;;2.60;;
17832;SDS011;9041;49.718;21.798;2023-03-14T11:43:22;6.15;;;2.63;;
17832;SDS011;9041;49.718;21.798;2023-03-14T11:45:54;6.90;;;2.90;;
17832;SDS011;9041;49.718;21.798;2023-03-14T11:48:29;5.70;;;2.92;;
17832;SDS011;9041;49.718;21.798;2023-03-14T11:51:02;7.43;;;2.97;;
17832;SDS011;9041;49.718;21.798;2023-03-14T11:53:36;4.55;;;2.53;;
17832;SDS011;9041;49.718;21.798;2023-03-14T11:56:19;8.90;;;3.63;;
17832;SDS011;9041;49.718;21.798;2023-03-14T11:59:09;7.05;;;2.85;;
17832;SDS011;9041;49.718;21.798;2023-03-14T12:04:40;8.68;;;2.88;;
17832;SDS011;9041;49.718;21.798;2023-03-14T12:07:50;10.88;;;3.35;;
17832;SDS011;9041;49.718;21.798;2023-03-14T12:10:30;5.20;;;3.00;;
17832;SDS011;9041;49.718;21.798;2023-03-14T12:13:04;7.82;;;3.03;;
17832;SDS011;9041;49.718;21.798;2023-03-14T12:15:35;8.32;;;2.83;;
17832;SDS011;9041;49.718;21.798;2023-03-14T12:18:12;6.00;;;3.10;;
17832;SDS011;9041;49.718;21.798;2023-03-14T12:20:50;5.35;;;2.95;;
17832;SDS011;9041;49.718;21.798;2023-03-14T12:23:18;5.07;;;2.90;;
17832;SDS011;9041;49.718;21.798;2023-03-14T12:25:45;5.60;;;2.90;;
17832;SDS011;9041;49.718;21.798;2023-03-14T12:28:20;6.88;;;3.03;;
17832;SDS011;9041;49.718;21.798;2023-03-14T12:30:47;6.53;;;3.47;;
17832;SDS011;9041;49.718;21.798;2023-03-14T12:36:11;7.90;;;3.05;;
17832;SDS011;9041;49.718;21.798;2023-03-14T12:41:36;7.32;;;2.88;;
17832;SDS011;9041;49.718;21.798;2023-03-14T12:50:14;5.05;;;3.08;;
17832;SDS011;9041;49.718;21.798;2023-03-14T12:52:49;8.70;;;3.17;;
17832;SDS011;9041;49.718;21.798;2023-03-14T12:55:36;10.32;;;3.42;;
17832;SDS011;9041;49.718;21.798;2023-03-14T12:58:07;9.55;;;3.33;;
17832;SDS011;9041;49.718;21.798;2023-03-14T13:00:40;5.93;;;3.28;;
17832;SDS011;9041;49.718;21.798;2023-03-14T13:03:17;9.57;;;3.80;;
17832;SDS011;9041;49.718;21.798;2023-03-14T13:05:54;9.43;;;3.58;;
17832;SDS011;9041;49.718;21.798;2023-03-14T13:08:33;8.65;;;3.67;;
17832;SDS011;9041;49.718;21.798;2023-03-14T13:11:02;6.55;;;3.47;;
17832;SDS011;9041;49.718;21.798;2023-03-14T13:13:31;6.43;;;3.38;;
17832;SDS011;9041;49.718;21.798;2023-03-14T13:16:02;10.10;;;3.25;;
17832;SDS011;9041;49.718;21.798;2023-03-14T13:18:33;11.52;;;4.65;;
17832;SDS011;9041;49.718;21.798;2023-03-14T13:21:02;5.82;;;3.55;;
17832;SDS011;9041;49.718;21.798;2023-03-14T13:23:32;7.82;;;3.60;;
17832;SDS011;9041;49.718;21.798;2023-03-14T13:26:00;7.50;;;3.45;;
17832;SDS011;9041;49.718;21.798;2023-03-14T13:28:29;8.32;;;3.83;;
17832;SDS011;9041;49.718;21.798;2023-03-14T13:30:57;13.02;;;4.05;;
17832;SDS011;9041;49.718;21.798;2023-03-14T13:33:26;8.95;;;4.13;;
17832;SDS011;9041;49.718;21.798;2023-03-14T13:35:55;7.57;;;4.00;;
17832;SDS011;9041;49.718;21.798;2023-03-14T13:38:24;7.00;;;3.40;;
17832;SDS011;9041;49.718;21.798;2023-03-14T13:40:53;5.78;;;3.40;;
17832;SDS011;9041;49.718;21.798;2023-03-14T13:43:25;9.15;;;3.75;;
17832;SDS011;9041;49.718;21.798;2023-03-14T13:45:56;6.45;;;3.45;;
17832;SDS011;9041;49.718;21.798;2023-03-14T13:48:30;6.78;;;4.10;;
17832;SDS011;9041;49.718;21.798;2023-03-14T13:50:59;9.90;;;4.32;;
17832;SDS011;9041;49.718;21.798;2023-03-14T13:53:28;8.68;;;4.28;;
17832;SDS011;9041;49.718;21.798;2023-03-14T13:55:55;6.93;;;3.55;;
17832;SDS011;9041;49.718;21.798;2023-03-14T13:58:23;13.43;;;4.07;;
17832;SDS011;9041;49.718;21.798;2023-03-14T14:00:54;9.30;;;4.53;;
17832;SDS011;9041;49.718;21.798;2023-03-14T14:03:22;11.52;;;4.88;;
17832;SDS011;9041;49.718;21.798;2023-03-14T14:05:51;10.55;;;4.82;;
17832;SDS011;9041;49.718;21.798;2023-03-14T14:08:18;8.73;;;4.18;;
17832;SDS011;9041;49.718;21.798;2023-03-14T14:10:45;8.00;;;3.88;;
17832;SDS011;9041;49.718;21.798;2023-03-14T14:13:14;8.20;;;4.53;;
17832;SDS011;9041;49.718;21.798;2023-03-14T14:15:44;7.40;;;4.20;;
17832;SDS011;9041;49.718;21.798;2023-03-14T14:18:12;7.88;;;4.22;;
17832;SDS011;9041;49.718;21.798;2023-03-14T14:20:42;6.82;;;3.75;;
17832;SDS011;9041;49.718;21.798;2023-03-14T14:23:12;9.27;;;4.22;;
17832;SDS011;9041;49.718;21.798;2023-03-14T14:25:42;7.35;;;4.10;;
17832;SDS011;9041;49.718;21.798;2023-03-14T14:28:16;7.30;;;3.90;;
17832;SDS011;9041;49.718;21.798;2023-03-14T14:30:44;7.43;;;3.90;;
17832;SDS011;9041;49.718;21.798;2023-03-14T14:33:12;10.23;;;4.63;;
17832;SDS011;9041;49.718;21.798;2023-03-14T14:35:48;8.65;;;4.53;;
17832;SDS011;9041;49.718;21.798;2023-03-14T14:38:18;14.82;;;4.70;;
17832;SDS011;9041;49.718;21.798;2023-03-14T14:40:48;8.82;;;4.28;;
17832;SDS011;9041;49.718;21.798;2023-03-14T14:43:17;14.02;;;4.50;;
17832;SDS011;9041;49.718;21.798;2023-03-14T14:45:45;12.75;;;4.22;;
17832;SDS011;9041;49.718;21.798;2023-03-14T14:48:21;10.55;;;4.47;;
17832;SDS011;9041;49.718;21.798;2023-03-14T14:50:50;7.53;;;4.55;;
17832;SDS011;9041;49.718;21.798;2023-03-14T14:53:26;7.95;;;4.40;;
17832;SDS011;9041;49.718;21.798;2023-03-14T14:56:15;7.30;;;4.30;;
17832;SDS011;9041;49.718;21.798;2023-03-14T14:58:44;9.18;;;4.30;;
17832;SDS011;9041;49.718;21.798;2023-03-14T15:01:13;10.18;;;5.20;;
17832;SDS011;9041;49.718;21.798;2023-03-14T15:03:42;13.60;;;5.10;;
17832;SDS011;9041;49.718;21.798;2023-03-14T15:06:10;9.15;;;4.75;;
17832;SDS011;9041;49.718;21.798;2023-03-14T15:08:40;8.60;;;4.40;;
17832;SDS011;9041;49.718;21.798;2023-03-14T15:11:10;9.38;;;5.10;;
17832;SDS011;9041;49.718;21.798;2023-03-14T15:13:43;12.70;;;5.20;;
17832;SDS011;9041;49.718;21.798;2023-03-14T15:16:10;13.18;;;5.22;;